Time;durP1;ratioP1;P1;durP2;ratioP2;P2;SDS_P1;SDS_P2;PMS_P1;PMS_P2;Temp;Humidity;BMP_temperature;BMP_pressure;BME280_temperature;BME280_humidity;BME280_pressure;Samples;Min_cycle;Max_cycle;Signal;HPM_P1;HPM_P2
2024/02/08 00:02:22;;;;;;;;;6.00;3.00;;;;;-144.24;100.00;73708.34;5040565;28;49404;-71
2024/02/08 00:04:49;;;;;;;;;3.33;3.33;;;;;-144.24;100.00;73655.91;5046737;28;55155;-71
2024/02/08 00:07:15;;;;;;;;;3.67;3.00;;;;;-144.24;100.00;73514.72;5056043;28;45294;-72
2024/02/08 00:09:40;;;;;;;;;5.00;3.00;;;;;-144.24;100.00;73557.06;5057679;28;46652;-71
2024/02/08 00:12:06;;;;;;;;;3.00;3.00;;;;;-144.24;100.00;73482.47;5055620;28;67566;-70
2024/02/08 00:14:31;;;;;;;;;4.00;3.00;;;;;-144.24;100.00;73369.50;5058192;28;45488;-70
2024/02/08 00:16:56;;;;;;;;;3.00;3.00;;;;;-144.24;100.00;73409.84;5057112;28;49911;-72
2024/02/08 00:19:22;;;;;;;;;3.33;3.33;;;;;-144.24;100.00;73335.22;5057763;28;45827;-70
2024/02/08 00:21:50;;;;;;;;;3.00;3.00;;;;;-144.24;100.00;73276.75;5056751;28;67442;-71
2024/02/08 00:24:15;;;;;;;;;2.00;2.00;;;;;-144.24;100.00;72923.84;5057302;28;45262;-71
2024/02/08 00:26:41;;;;;;;;;1.00;1.00;;;;;-144.24;100.00;72909.72;5039736;28;45471;-71
2024/02/08 00:29:07;;;;;;;;;2.33;2.33;;;;;-144.24;100.00;72814.94;5039806;28;46456;-71
2024/02/08 00:31:33;;;;;;;;;3.00;3.00;;;;;-144.24;100.00;72716.13;5035344;28;45368;-71
2024/02/08 00:33:58;;;;;;;;;2.33;2.33;;;;;-144.24;100.00;72556.84;5056004;28;68892;-72
2024/02/08 00:36:23;;;;;;;;;2.00;2.00;;;;;-144.24;100.00;72331.00;5059108;28;65195;-72
2024/02/08 00:38:49;;;;;;;;;3.00;3.00;;;;;-144.24;100.00;72262.47;5049382;28;46198;-71
2024/02/08 00:41:14;;;;;;;;;4.00;2.00;;;;;-144.24;100.00;72014.47;5053807;28;45282;-70
2024/02/08 00:43:39;;;;;;;;;2.67;2.00;;;;;-144.24;100.00;71913.66;5056213;28;65420;-72
2024/02/08 00:46:08;;;;;;;;;2.67;2.00;;;;;-144.24;100.00;71742.31;5055453;28;62649;-71
2024/02/08 00:48:33;;;;;;;;;2.67;2.00;;;;;-144.24;100.00;71605.22;5033351;28;45470;-72
2024/02/08 00:50:59;;;;;;;;;1.00;1.00;;;;;-144.24;100.00;71391.53;5053028;28;45503;-71
2024/02/08 00:53:24;;;;;;;;;2.00;1.00;;;;;-144.24;100.00;71262.53;5037795;28;45543;-72
2024/02/08 00:55:49;;;;;;;;;1.00;1.00;;;;;-144.24;100.00;71109.34;5055931;28;46881;-71
2024/02/08 00:58:16;;;;;;;;;1.00;1.00;;;;;-144.24;100.00;70962.22;5038572;28;45876;-72
2024/02/08 01:00:42;;;;;;;;;1.00;1.00;;;;;-144.24;100.00;70716.31;5035037;28;45466;-71
2024/02/08 01:03:07;;;;;;;;;1.00;1.00;;;;;-144.24;100.00;70597.41;5056177;28;45643;-70
2024/02/08 01:05:33;;;;;;;;;1.00;1.00;;;;;-144.24;100.00;70418.03;5052192;28;45537;-70
2024/02/08 01:08:00;;;;;;;;;1.33;1.33;;;;;-144.24;100.00;70343.47;5033891;28;46359;-71
2024/02/08 01:10:26;;;;;;;;;1.00;1.00;;;;;-144.24;100.00;70335.41;5056143;28;45407;-70
2024/02/08 01:12:52;;;;;;;;;1.00;1.00;;;;;-144.24;100.00;70045.22;5056531;28;45300;-71
2024/02/08 01:15:18;;;;;;;;;1.00;1.00;;;;;-144.24;100.00;69920.31;5041389;28;45501;-71
2024/02/08 01:17:43;;;;;;;;;1.00;0.67;;;;;-144.24;100.00;69833.66;5055791;28;45750;-71
2024/02/08 01:20:09;;;;;;;;;1.00;1.00;;;;;-144.24;100.00;69755.06;5054465;28;71748;-72
2024/02/08 01:22:35;;;;;;;;;1.00;1.00;;;;;-144.24;100.00;69515.31;5056081;28;45273;-71
2024/02/08 01:25:00;;;;;;;;;1.00;1.00;;;;;-144.24;100.00;69464.94;5055586;28;64645;-71
2024/02/08 01:27:25;;;;;;;;;0.00;0.00;;;;;-144.24;100.00;69342.03;5053859;28;64841;-72
2024/02/08 01:29:53;;;;;;;;;1.00;1.00;;;;;-144.24;100.00;69188.91;5055110;28;66626;-71
2024/02/08 01:32:20;;;;;;;;;1.00;1.00;;;;;-144.24;100.00;68906.88;5056371;28;45280;-71
2024/02/08 01:34:45;;;;;;;;;1.00;1.00;;;;;-144.24;100.00;68703.41;5037726;28;54269;-71
2024/02/08 01:37:14;;;;;;;;;1.33;1.33;;;;;-144.24;100.00;68554.34;5030830;28;46453;-70
2024/02/08 01:39:43;;;;;;;;;1.00;1.00;;;;;-144.24;100.00;68258.25;5054026;28;45557;-72
2024/02/08 01:42:15;;;;;;;;;0.33;0.33;;;;;-144.24;100.00;67933.97;5055332;28;45564;-71
2024/02/08 01:44:47;;;;;;;;;1.00;1.00;;;;;-144.24;100.00;67867.50;5053836;28;45692;-70
2024/02/08 01:47:20;;;;;;;;;0.00;0.00;;;;;-144.24;100.00;67835.28;5038236;28;46643;-70
2024/02/08 01:49:47;;;;;;;;;1.00;1.00;;;;;-144.24;100.00;67774.88;5051359;28;45246;-72
2024/02/08 01:52:17;;;;;;;;;0.33;0.33;;;;;-144.24;100.00;67577.50;5038046;28;45515;-71
2024/02/08 01:54:43;;;;;;;;;0.00;0.00;;;;;-144.24;100.00;67339.88;5039771;28;45594;-72
2024/02/08 01:57:09;;;;;;;;;1.00;1.00;;;;;-144.24;100.00;67360.00;5035878;28;47288;-71
2024/02/08 01:59:35;;;;;;;;;0.00;0.00;;;;;-144.24;100.00;67325.78;5056728;28;45304;-70
2024/02/08 02:02:01;;;;;;;;;1.00;1.00;;;;;-144.24;100.00;67062.00;5030802;28;45713;-72
2024/02/08 02:04:27;;;;;;;;;0.67;0.67;;;;;-144.24;100.00;67017.69;5056176;28;45506;-70
2024/02/08 02:06:52;;;;;;;;;1.67;1.00;;;;;-144.24;100.00;66961.31;5055512;28;46776;-71
2024/02/08 02:09:24;;;;;;;;;1.00;1.00;;;;;-144.24;100.00;66872.72;5054924;28;70318;-71
2024/02/08 02:12:01;;;;;;;;;0.00;0.00;;;;;-144.24;100.00;66302.94;5055068;28;45177;-72
2024/02/08 02:14:29;;;;;;;;;1.00;1.00;;;;;-144.24;100.00;66613.00;5037814;28;46399;-69
2024/02/08 02:17:13;;;;;;;;;1.00;1.00;;;;;-144.24;100.00;66415.69;5054822;28;45616;-72
2024/02/08 02:19:39;;;;;;;;;1.00;1.00;;;;;-144.24;100.00;65817.78;5055486;28;45380;-70
2024/02/08 02:22:07;;;;;;;;;1.00;1.00;;;;;-144.24;100.00;66230.47;5038284;28;45348;-72
2024/02/08 02:24:36;;;;;;;;;0.00;0.00;;;;;-144.24;100.00;66232.47;5054804;28;45317;-70
2024/02/08 02:27:06;;;;;;;;;1.00;0.00;;;;;-144.24;100.00;65920.44;5030997;28;46801;-71
2024/02/08 02:29:33;;;;;;;;;1.00;1.00;;;;;-144.24;100.00;65928.50;5033265;28;45475;-72
2024/02/08 02:31:59;;;;;;;;;2.00;0.00;;;;;-144.24;100.00;65870.13;5037286;28;45419;-71
2024/02/08 02:34:26;;;;;;;;;1.00;1.00;;;;;-144.24;100.00;65841.94;5037068;28;45511;-71
2024/02/08 02:36:54;;;;;;;;;0.67;0.67;;;;;-144.24;100.00;65743.31;5042401;28;47240;-71
2024/02/08 02:39:25;;;;;;;;;1.00;1.00;;;;;-144.24;100.00;65674.88;5039851;28;45412;-71
2024/02/08 02:41:52;;;;;;;;;0.67;0.67;;;;;-144.24;100.00;65338.72;5045972;28;45465;-71
2024/02/08 02:44:18;;;;;;;;;0.00;0.00;;;;;-144.24;100.00;65481.63;5058064;28;45680;-71
2024/02/08 02:46:43;;;;;;;;;1.00;1.00;;;;;-144.24;100.00;65509.81;5058686;28;46050;-71
2024/02/08 02:49:09;;;;;;;;;0.67;0.67;;;;;-144.24;100.00;65403.13;5058749;28;45423;-71
2024/02/08 02:51:36;;;;;;;;;0.33;0.33;;;;;-144.24;100.00;65264.25;5058642;28;45446;-71
2024/02/08 02:54:02;;;;;;;;;0.00;0.00;;;;;-144.24;100.00;65173.69;5059268;28;45514;-71
2024/02/08 02:56:28;;;;;;;;;1.00;1.00;;;;;-144.24;100.00;64899.97;5058454;28;46379;-72
2024/02/08 02:58:54;;;;;;;;;0.67;0.67;;;;;-144.24;100.00;64761.13;5058304;28;45301;-71
2024/02/08 03:01:20;;;;;;;;;1.00;1.00;;;;;-144.24;100.00;64787.28;5058326;28;45300;-71
2024/02/08 03:03:47;;;;;;;;;1.33;1.00;;;;;-144.24;100.00;64654.47;5028734;28;45553;-71
2024/02/08 03:06:15;;;;;;;;;0.00;0.00;;;;;-144.24;100.00;64519.63;5058356;28;45717;-70
2024/02/08 03:08:44;;;;;;;;;1.00;1.00;;;;;-144.24;100.00;64366.69;5057664;28;46943;-71
2024/02/08 03:11:11;;;;;;;;;1.00;1.00;;;;;-144.24;100.00;64312.38;5058587;28;45467;-70
2024/02/08 03:13:40;;;;;;;;;1.00;1.00;;;;;-144.24;100.00;64113.16;5058285;28;45483;-71
2024/02/08 03:16:06;;;;;;;;;0.00;0.00;;;;;-144.24;100.00;64151.41;5040344;28;46580;-71
2024/02/08 03:18:32;;;;;;;;;2.00;0.67;;;;;-144.24;100.00;64145.38;5057608;28;45368;-72
2024/02/08 03:20:57;;;;;;;;;1.00;1.00;;;;;-144.24;100.00;64201.69;5058923;28;45480;-71
2024/02/08 03:23:24;;;;;;;;;0.00;0.00;;;;;-144.24;100.00;64078.97;5057806;28;60220;-72
2024/02/08 03:25:49;;;;;;;;;1.00;1.00;;;;;-144.24;100.00;64133.28;5058637;28;46491;-71
2024/02/08 03:28:17;;;;;;;;;0.00;0.00;;;;;-144.24;100.00;64044.75;5058142;28;45409;-70
2024/02/08 03:30:43;;;;;;;;;1.00;1.00;;;;;-144.24;100.00;63911.97;5057655;28;45270;-71
2024/02/08 03:33:15;;;;;;;;;0.00;0.00;;;;;-144.24;100.00;63972.31;5041412;28;45617;-71
2024/02/08 03:35:42;;;;;;;;;0.33;0.33;;;;;-144.24;100.00;63751.00;5057768;28;47666;-71
2024/02/08 03:38:08;;;;;;;;;0.00;0.00;;;;;-144.24;100.00;63791.25;5062380;28;45487;-71
2024/02/08 03:40:34;;;;;;;;;1.00;1.00;;;;;-144.24;100.00;63722.84;5021020;28;45516;-71
2024/02/08 03:43:03;;;;;;;;;0.67;0.67;;;;;-144.24;100.00;63734.91;5058399;28;45352;-69
2024/02/08 03:45:28;;;;;;;;;0.00;0.00;;;;;-144.24;100.00;63698.69;5039697;28;46135;-71
2024/02/08 03:47:58;;;;;;;;;1.00;1.00;;;;;-144.24;100.00;63702.72;5039611;28;45390;-71
2024/02/08 03:50:33;;;;;;;;;1.00;1.00;;;;;-144.24;100.00;63662.47;5057072;28;45498;-71
2024/02/08 03:52:59;;;;;;;;;1.00;1.00;;;;;-144.24;100.00;63565.91;5063779;28;45599;-72
2024/02/08 03:55:27;;;;;;;;;0.00;0.00;;;;;-144.24;100.00;63799.28;5058269;28;46981;-71
2024/02/08 03:57:56;;;;;;;;;0.00;0.00;;;;;-144.24;100.00;63777.16;5057318;28;45476;-70
2024/02/08 04:00:27;;;;;;;;;0.00;0.00;;;;;-144.24;100.00;63841.53;5063594;28;45525;-71
2024/02/08 04:02:56;;;;;;;;;0.00;0.00;;;;;-144.24;100.00;63855.63;5051633;28;45317;-71
2024/02/08 04:05:36;;;;;;;;;0.00;0.00;;;;;-144.24;100.00;64111.16;5052397;28;46419;-70
2024/02/08 04:08:22;;;;;;;;;0.00;0.00;;;;;-144.24;100.00;63843.56;5039472;28;45392;-70
2024/02/08 04:54:18;;;;;;;;;0.00;0.00;;;;;-144.24;100.00;63744.97;5057632;28;45352;-71
2024/02/08 04:56:46;;;;;;;;;0.00;0.00;;;;;-144.24;100.00;64107.13;5056588;28;45230;-71
2024/02/08 04:59:12;;;;;;;;;0.00;0.00;;;;;-144.24;100.00;64250.00;5057092;28;46582;-72
2024/02/08 05:01:38;;;;;;;;;0.00;0.00;;;;;-144.24;100.00;64447.19;5041699;28;45396;-72
2024/02/08 05:04:04;;;;;;;;;0.00;0.00;;;;;-144.24;100.00;64469.31;5056863;28;45391;-72
2024/02/08 05:06:29;;;;;;;;;0.00;0.00;;;;;-144.24;100.00;63960.25;5061631;28;45629;-71
2024/02/08 05:08:59;;;;;;;;;0.00;0.00;;;;;-144.24;100.00;63437.16;5051967;28;73721;-72
2024/02/08 05:11:28;;;;;;;;;0.00;0.00;;;;;-144.24;100.00;63079.09;5060514;28;45322;-71
2024/02/08 05:14:00;;;;;;;;;0.00;0.00;;;;;-144.24;100.00;63097.19;5056989;28;45261;-71
2024/02/08 05:16:27;;;;;;;;;0.00;0.00;;;;;-144.24;100.00;63304.38;5048648;28;45575;-72
2024/02/08 05:18:55;;;;;;;;;0.00;0.00;;;;;-144.24;100.00;63765.09;5056214;28;45740;-73
2024/02/08 05:21:22;;;;;;;;;0.00;0.00;;;;;-144.24;100.00;63877.75;5057068;28;45327;-71
2024/02/08 05:23:51;;;;;;;;;0.00;0.00;;;;;-144.24;100.00;64294.25;5056572;28;45380;-70
2024/02/08 05:26:25;;;;;;;;;0.00;0.00;;;;;-144.24;100.00;64481.41;5029123;28;45226;-71
2024/02/08 05:28:52;;;;;;;;;0.00;0.00;;;;;-144.24;100.00;64535.72;5058568;28;46069;-70
2024/02/08 05:31:18;;;;;;;;;0.00;0.00;;;;;-144.24;100.00;64781.25;5038726;28;45467;-71
2024/02/08 05:33:44;;;;;;;;;0.00;0.00;;;;;-144.24;100.00;64916.06;5056155;28;45421;-70
2024/02/08 05:36:13;;;;;;;;;0.00;0.00;;;;;-144.24;100.00;64881.88;5056998;28;45581;-70
2024/02/08 05:38:41;;;;;;;;;0.00;0.00;;;;;-144.24;100.00;64928.16;5055889;28;47611;-72
2024/02/08 05:41:07;;;;;;;;;0.00;0.00;;;;;-144.24;100.00;64654.47;5046523;28;45391;-71
2024/02/08 05:43:44;;;;;;;;;0.00;0.00;;;;;-144.24;100.00;64680.63;5048177;28;45597;-71
2024/02/08 05:46:21;;;;;;;;;0.00;0.00;;;;;-144.24;100.00;64175.53;5052649;28;45733;-70
2024/02/08 05:48:51;;;;;;;;;0.00;0.00;;;;;-144.24;100.00;64193.66;5056078;28;46682;-71
2024/02/08 05:51:20;;;;;;;;;0.00;0.00;;;;;-144.24;100.00;64306.34;5047833;28;45435;-71
2024/02/08 05:53:47;;;;;;;;;0.00;0.00;;;;;-144.24;100.00;64205.72;5035576;28;45448;-71
2024/02/08 05:56:15;;;;;;;;;0.00;0.00;;;;;-144.24;100.00;64235.91;5032160;28;45395;-71
2024/02/08 05:58:40;;;;;;;;;0.00;0.00;;;;;-144.24;100.00;64310.34;5055842;28;46765;-71
2024/02/08 06:01:16;;;;;;;;;0.33;0.00;;;;;-144.24;100.00;64419.03;5049904;28;45356;-71
2024/02/08 06:03:46;;;;;;;;;0.00;0.00;;;;;-144.24;100.00;64036.72;5053634;28;45553;-71
2024/02/08 06:06:17;;;;;;;;;0.67;0.00;;;;;-144.24;100.00;64137.31;5051371;28;45489;-70
2024/02/08 06:08:43;;;;;;;;;2.00;0.00;;;;;-144.24;100.00;64169.50;5045175;28;46128;-72
2024/02/08 06:11:23;;;;;;;;;1.00;0.00;;;;;-144.24;100.00;64372.75;5059400;28;45402;-69
2024/02/08 06:13:55;;;;;;;;;0.33;0.00;;;;;-144.24;100.00;64185.59;5059072;28;45344;-72
2024/02/08 06:16:27;;;;;;;;;0.00;0.00;;;;;-144.24;100.00;64614.22;5056963;28;45356;-71
2024/02/08 06:18:57;;;;;;;;;0.00;0.00;;;;;-144.24;100.00;64658.50;5052142;28;46592;-71
2024/02/08 06:21:38;;;;;;;;;0.00;0.00;;;;;-144.24;100.00;65004.63;5059171;28;45280;-70
2024/02/08 06:24:29;;;;;;;;;0.00;0.00;;;;;-144.24;100.00;64994.56;5058487;28;45518;-72
2024/02/08 06:27:13;;;;;;;;;0.00;0.00;;;;;-144.24;100.00;64773.19;5059102;28;45545;-71
2024/02/08 06:29:42;;;;;;;;;1.33;0.00;;;;;-144.24;100.00;64765.16;5029875;28;47418;-71
2024/02/08 06:32:23;;;;;;;;;1.00;0.00;;;;;-144.24;100.00;65207.91;5039459;28;45426;-71
2024/02/08 06:35:09;;;;;;;;;2.00;1.00;;;;;-144.24;100.00;64732.94;5056020;28;45498;-71
2024/02/08 06:37:44;;;;;;;;;1.00;1.00;;;;;-144.24;100.00;64696.72;5217766;22;45620;-71
2024/02/08 06:41:24;;;;;;;;;1.00;1.00;;;;;-144.24;100.00;64360.66;5092373;27;45464;-69
2024/02/08 06:48:42;;;;;;;;;3.67;2.00;;;;;-144.24;100.00;63372.78;5078055;28;45431;-71
2024/02/08 07:37:44;;;;;;;;;14.00;6.33;;;;;-144.24;100.00;57247.78;5076931;27;45538;-70
2024/02/08 07:40:23;;;;;;;;;12.00;6.00;;;;;-144.24;100.00;58039.25;5077571;27;46568;-71
2024/02/08 07:42:52;;;;;;;;;9.00;6.67;;;;;-144.24;100.00;57627.41;5079439;27;45557;-68
2024/02/08 07:45:26;;;;;;;;;9.67;5.67;;;;;-144.24;100.00;58079.44;5079410;27;46216;-69
2024/02/08 07:47:58;;;;;;;;;10.00;6.00;;;;;-144.24;100.00;58085.47;5083937;27;45358;-69
2024/02/08 07:50:25;;;;;;;;;11.33;7.33;;;;;-144.24;100.00;58167.84;5084313;27;45478;-70
2024/02/08 07:52:58;;;;;;;;;6.33;3.33;;;;;-144.24;100.00;58065.38;5091526;27;45513;-68
2024/02/08 07:55:53;;;;;;;;;12.33;6.67;;;;;-144.24;100.00;57784.13;5067523;27;46497;-68
2024/02/08 07:58:17;;;;;;;;;9.33;6.00;;;;;-144.24;100.00;57044.91;5065849;27;45446;-69
2024/02/08 08:00:43;;;;;;;;;16.00;6.67;;;;;-144.24;100.00;57420.53;5074614;27;45503;-68
2024/02/08 08:03:10;;;;;;;;;12.67;6.33;;;;;-144.24;100.00;57470.72;5060161;27;45628;-68
2024/02/08 08:05:41;;;;;;;;;12.33;6.00;;;;;-144.24;100.00;57336.16;5077759;27;46540;-70
2024/02/08 08:08:24;;;;;;;;;13.67;7.00;;;;;-144.24;100.00;57085.06;5086045;27;45501;-69
2024/02/08 08:10:56;;;;;;;;;9.00;7.33;;;;;-144.24;100.00;56430.34;5082300;27;45421;-68
2024/02/08 08:18:57;;;;;;;;;13.67;6.00;;;;;-144.24;100.00;55582.97;5070556;27;45523;-70
2024/02/08 08:21:25;;;;;;;;;9.00;5.33;;;;;-144.24;100.00;55930.34;5083430;27;45349;-71
2024/02/08 08:23:59;;;;;;;;;10.00;7.00;;;;;-144.24;100.00;55815.88;5063306;27;45422;-69
2024/02/08 08:26:37;;;;;;;;;10.00;7.00;;;;;-144.24;100.00;55434.41;5075263;27;45850;-70
2024/02/08 08:29:04;;;;;;;;;13.33;5.33;;;;;-144.24;100.00;54936.50;5079970;27;45310;-70
2024/02/08 08:31:35;;;;;;;;;11.33;8.00;;;;;-144.24;100.00;55247.69;5064162;27;45502;-69
2024/02/08 08:34:32;;;;;;;;;16.33;6.00;;;;;-144.24;100.00;55032.88;5065859;27;45303;-69
2024/02/08 08:36:57;;;;;;;;;8.00;6.00;;;;;-144.24;100.00;54254.03;5076590;27;46176;-71
2024/02/08 08:42:16;;;;;;;;;32.00;17.33;;;;;-144.24;100.00;53619.84;5064357;27;45547;-69
2024/02/08 08:44:45;;;;;;;;;8.00;6.33;;;;;-144.24;100.00;53579.69;5075106;27;45842;-70
2024/02/08 08:47:13;;;;;;;;;17.33;8.67;;;;;-144.24;100.00;53802.47;5073891;27;46310;-69
2024/02/08 08:49:39;;;;;;;;;13.33;8.67;;;;;-144.24;100.00;53912.84;5080411;27;45464;-70
2024/02/08 08:52:06;;;;;;;;;17.67;8.33;;;;;-144.24;100.00;53860.66;5073580;27;45370;-70
2024/02/08 08:54:36;;;;;;;;;10.67;8.00;;;;;-144.24;100.00;53778.38;5086070;27;45971;-70
2024/02/08 08:57:12;;;;;;;;;10.33;6.33;;;;;-144.24;100.00;53605.78;5079762;27;45692;-70
2024/02/08 08:59:43;;;;;;;;;11.33;5.33;;;;;-144.24;100.00;53248.59;5095114;27;45161;-70
2024/02/08 09:02:09;;;;;;;;;17.33;8.00;;;;;-144.24;100.00;53367.00;5083366;27;45651;-70
2024/02/08 09:04:36;;;;;;;;;7.33;5.33;;;;;-144.24;100.00;53702.13;5076241;27;45800;-71
2024/02/08 09:07:11;;;;;;;;;19.67;8.00;;;;;-144.24;100.00;54075.41;5085750;27;46480;-70
2024/02/08 09:12:28;;;;;;;;;20.33;7.00;;;;;-144.24;100.00;53232.53;5079442;27;45279;-68
2024/02/08 09:14:54;;;;;;;;;14.00;6.67;;;;;-144.24;100.00;53750.28;5080153;27;45501;-70
2024/02/08 09:17:25;;;;;;;;;9.67;7.00;;;;;-144.24;100.00;54169.75;5089421;27;46453;-70
2024/02/08 09:19:51;;;;;;;;;13.00;6.33;;;;;-144.24;100.00;54392.53;5075866;27;45650;-71
2024/02/08 09:22:17;;;;;;;;;12.00;6.67;;;;;-144.24;100.00;54699.63;5092373;27;45411;-70
2024/02/08 09:24:44;;;;;;;;;9.00;4.33;;;;;-144.24;100.00;54781.94;5076692;27;45592;-70
2024/02/08 09:27:16;;;;;;;;;11.33;8.00;;;;;-144.24;100.00;54864.25;5064009;27;47979;-69
2024/02/08 09:29:42;;;;;;;;;6.00;1.00;;;;;-144.24;100.00;54964.63;5083378;27;45560;-69
2024/02/08 09:34:54;;;;;;;;;13.00;6.00;;;;;-144.24;100.00;54992.72;5084931;27;45238;-70
2024/02/08 09:37:19;;;;;;;;;16.00;7.00;;;;;-144.24;100.00;55996.59;5088329;27;45944;-70
2024/02/08 09:39:58;;;;;;;;;10.00;5.33;;;;;-144.24;100.00;56763.72;5075778;27;51973;-71
2024/02/08 09:42:27;;;;;;;;;11.00;3.67;;;;;-144.24;100.00;56882.22;5073270;27;45523;-71
2024/02/08 09:45:13;;;;;;;;;6.00;4.00;;;;;-144.24;100.00;57400.44;5079130;27;47026;-70
2024/02/08 09:47:44;;;;;;;;;6.00;5.00;;;;;-144.24;100.00;57549.06;5064667;27;46576;-70
2024/02/08 09:50:21;;;;;;;;;10.67;6.00;;;;;-144.24;100.00;58414.97;5090183;27;45552;-70
2024/02/08 09:52:56;;;;;;;;;14.00;9.00;;;;;-144.24;100.00;58650.03;5070487;27;45417;-69
2024/02/08 09:55:32;;;;;;;;;10.00;5.00;;;;;-144.24;100.00;59037.88;5089747;27;47323;-70
2024/02/08 09:58:04;;;;;;;;;12.00;5.00;;;;;-144.24;100.00;59070.00;5065541;27;47444;-70
2024/02/08 10:00:54;;;;;;;;;9.00;6.33;;;;;-144.24;100.00;59355.38;5086373;27;45581;-70
2024/02/08 10:03:31;;;;;;;;;9.67;5.00;;;;;-144.24;100.00;58746.50;5069522;27;45387;-69
2024/02/08 10:06:12;;;;;;;;;13.00;5.00;;;;;-144.24;100.00;59007.72;5080257;27;45527;-69
2024/02/08 10:08:51;;;;;;;;;17.00;9.00;;;;;-144.24;100.00;58955.47;5080783;27;46496;-69
2024/02/08 10:11:23;;;;;;;;;8.00;4.00;;;;;-144.24;100.00;58226.09;5070988;27;45698;-70
2024/02/08 10:14:24;;;;;;;;;6.67;5.67;;;;;-144.24;100.00;58370.75;5086305;27;45406;-70
2024/02/08 10:16:50;;;;;;;;;8.00;5.00;;;;;-144.24;100.00;57302.00;5080845;27;45548;-70
2024/02/08 10:22:10;;;;;;;;;16.00;7.67;;;;;-144.24;100.00;56960.53;5085803;27;45304;-70
2024/02/08 10:27:20;;;;;;;;;13.33;7.33;;;;;-144.24;100.00;55809.84;5071647;27;45376;-70
2024/02/08 10:30:05;;;;;;;;;9.67;5.00;;;;;-144.24;100.00;55354.09;5084291;27;46852;-70
2024/02/08 10:32:30;;;;;;;;;9.00;5.67;;;;;-144.24;100.00;55073.03;5075768;27;45483;-70
2024/02/08 10:35:20;;;;;;;;;10.00;5.33;;;;;-144.24;100.00;54336.31;5082690;27;45296;-70
2024/02/08 10:37:55;;;;;;;;;12.33;6.33;;;;;-144.24;100.00;53346.94;5067244;27;45404;-70
2024/02/08 10:40:32;;;;;;;;;14.00;5.33;;;;;-144.24;100.00;53043.94;5080463;27;46549;-70
2024/02/08 10:43:17;;;;;;;;;6.67;5.33;;;;;-144.24;100.00;51886.34;5081952;27;45370;-70
2024/02/08 10:45:53;;;;;;;;;7.00;5.67;;;;;-144.24;100.00;51090.09;5075323;27;45492;-71
2024/02/08 10:48:30;;;;;;;;;12.67;9.67;;;;;-144.24;100.00;50490.47;5057377;27;45833;-70
2024/02/08 10:51:02;;;;;;;;;13.67;7.33;;;;;-144.24;100.00;50129.56;5083959;27;45840;-70
2024/02/08 10:53:49;;;;;;;;;9.00;6.33;;;;;-144.24;100.00;49409.81;5067669;27;45639;-71
2024/02/08 10:56:17;;;;;;;;;9.00;6.00;;;;;-144.24;100.00;47832.47;5077526;27;46456;-69
2024/02/08 10:59:09;;;;;;;;;15.67;7.00;;;;;-144.24;100.00;47497.84;5082706;27;45476;-70
2024/02/08 11:04:28;;;;;;;;;8.67;7.00;;;;;-144.24;100.00;45751.00;5084723;27;45422;-70
2024/02/08 11:06:56;;;;;;;;;10.33;7.67;;;;;-144.24;100.00;45628.84;5057303;27;45241;-70
2024/02/08 11:09:27;;;;;;;;;13.67;7.00;;;;;-144.24;100.00;45508.69;5066059;27;45520;-69
2024/02/08 11:12:07;;;;;;;;;7.33;6.00;;;;;-144.24;100.00;45356.47;5061871;27;48506;-70
2024/02/08 11:14:41;;;;;;;;;10.67;7.33;;;;;-144.24;100.00;45140.22;5072871;27;45576;-69
2024/02/08 11:17:19;;;;;;;;;11.67;8.67;;;;;-144.24;100.00;44755.75;5078988;27;45483;-70
2024/02/08 11:19:49;;;;;;;;;10.67;5.67;;;;;-144.24;100.00;44275.22;5067615;27;45664;-70
2024/02/08 11:22:40;;;;;;;;;12.00;7.00;;;;;-144.24;100.00;43780.75;5066651;27;48447;-69
2024/02/08 11:25:44;;;;;;;;;11.00;6.33;;;;;-144.24;100.00;43158.25;5073917;27;45581;-69
2024/02/08 11:28:16;;;;;;;;;6.67;5.00;;;;;-144.24;100.00;42361.72;5080249;27;45507;-70
2024/02/08 11:30:46;;;;;;;;;8.67;6.33;;;;;-144.24;100.00;42433.78;5064162;27;45382;-69
2024/02/08 11:33:12;;;;;;;;;12.00;6.67;;;;;-144.24;100.00;42309.69;5086310;27;47214;-69
2024/02/08 11:35:54;;;;;;;;;8.00;6.67;;;;;-144.24;100.00;42347.72;5078472;27;45511;-69
2024/02/08 11:38:26;;;;;;;;;13.00;7.67;;;;;-144.24;100.00;42009.56;5079139;27;45446;-70
2024/02/08 11:40:55;;;;;;;;;14.33;8.00;;;;;-144.24;100.00;42105.59;5087948;27;45522;-71
2024/02/08 11:43:24;;;;;;;;;16.33;6.67;;;;;-144.24;100.00;42001.56;5079230;27;45837;-70
2024/02/08 11:45:54;;;;;;;;;9.33;6.33;;;;;-144.24;100.00;41651.41;5086877;27;45365;-70
2024/02/08 11:48:31;;;;;;;;;10.33;8.33;;;;;-144.24;100.00;41389.31;5080557;27;45382;-70
2024/02/08 11:51:02;;;;;;;;;13.33;7.00;;;;;-144.24;100.00;42219.66;5085428;27;45545;-70
2024/02/08 11:53:32;;;;;;;;;7.33;6.00;;;;;-144.24;100.00;41871.50;5061521;27;45940;-71
2024/02/08 11:56:02;;;;;;;;;16.33;7.33;;;;;-144.24;100.00;41639.41;5085862;27;45516;-71
2024/02/08 11:58:30;;;;;;;;;11.33;8.33;;;;;-144.24;100.00;41255.28;5090857;27;45463;-71
2024/02/08 12:00:57;;;;;;;;;12.00;5.67;;;;;-144.24;100.00;41291.31;5089524;27;45203;-70
2024/02/08 12:03:26;;;;;;;;;10.00;7.33;;;;;-144.24;100.00;41421.34;5089179;27;45555;-71
2024/02/08 12:05:54;;;;;;;;;7.33;6.67;;;;;-144.24;100.00;41417.34;5084573;27;45405;-72
2024/02/08 12:08:21;;;;;;;;;7.67;7.00;;;;;-144.24;100.00;41453.34;5086128;27;45367;-70
2024/02/08 12:10:50;;;;;;;;;4.00;4.00;;;;;-144.24;100.00;41541.38;5084982;27;45442;-71
2024/02/08 12:13:18;;;;;;;;;11.33;6.33;;;;;-144.24;100.00;41737.44;5083208;27;45931;-71
2024/02/08 12:15:55;;;;;;;;;10.67;7.33;;;;;-144.24;100.00;42005.56;5078423;27;45382;-72
2024/02/08 12:18:21;;;;;;;;;11.33;8.00;;;;;-144.24;100.00;42065.59;5071366;27;45270;-72
2024/02/08 12:20:55;;;;;;;;;8.67;7.00;;;;;-144.24;100.00;42235.66;5086188;27;45925;-71
2024/02/08 12:23:23;;;;;;;;;9.00;7.00;;;;;-144.24;100.00;42523.81;5080888;27;46862;-71
2024/02/08 12:25:53;;;;;;;;;14.00;6.00;;;;;-144.24;100.00;42639.88;5093387;27;45320;-71
2024/02/08 12:28:19;;;;;;;;;11.33;6.00;;;;;-144.24;100.00;42946.09;5083571;27;45476;-70
2024/02/08 12:30:44;;;;;;;;;10.33;6.00;;;;;-144.24;100.00;43324.38;5076897;27;56450;-71
2024/02/08 12:33:11;;;;;;;;;12.67;6.67;;;;;-144.24;100.00;43530.53;5063604;27;46112;-72
2024/02/08 12:35:41;;;;;;;;;11.33;7.00;;;;;-144.24;100.00;43524.53;5084175;27;70280;-71
2024/02/08 12:38:09;;;;;;;;;8.33;6.33;;;;;-144.24;100.00;43578.56;5088091;27;45506;-72
2024/02/08 12:40:34;;;;;;;;;6.33;5.00;;;;;-144.24;100.00;43724.69;5084405;27;46775;-72
2024/02/08 12:43:00;;;;;;;;;10.67;7.00;;;;;-144.24;100.00;44339.28;5072640;27;46971;-71
2024/02/08 12:45:28;;;;;;;;;7.00;6.00;;;;;-144.24;100.00;44992.03;5077866;27;65891;-70
2024/02/08 12:47:57;;;;;;;;;10.67;7.00;;;;;-144.24;100.00;45616.81;5073853;27;45522;-70
2024/02/08 12:50:23;;;;;;;;;9.67;6.67;;;;;-144.24;100.00;46185.66;5065920;27;46080;-71
2024/02/08 12:52:54;;;;;;;;;8.33;5.33;;;;;-144.24;100.00;46618.31;5076615;27;46148;-70
2024/02/08 12:55:22;;;;;;;;;6.33;6.00;;;;;-144.24;100.00;47175.25;5065885;27;45468;-71
2024/02/08 12:57:57;;;;;;;;;9.67;7.67;;;;;-144.24;100.00;47523.88;5065692;27;45613;-70
2024/02/08 13:00:23;;;;;;;;;7.00;6.00;;;;;-144.24;100.00;47618.06;5084263;27;45560;-70
2024/02/08 13:02:54;;;;;;;;;10.00;6.67;;;;;-144.24;100.00;48441.69;5069482;27;47482;-71
2024/02/08 13:12:21;;;;;;;;;11.67;6.00;;;;;-144.24;100.00;50576.72;5082788;27;45628;-70
2024/02/08 13:14:49;;;;;;;;;6.33;4.00;;;;;-144.24;100.00;51045.97;5072070;27;46285;-72
2024/02/08 13:17:21;;;;;;;;;8.33;8.00;;;;;-144.24;100.00;52048.84;5083484;27;45476;-72
2024/02/08 13:19:55;;;;;;;;;7.33;7.00;;;;;-144.24;100.00;52387.84;5087836;27;45553;-72
2024/02/08 13:22:23;;;;;;;;;14.67;6.00;;;;;-144.24;100.00;52989.75;5082148;27;46121;-72
2024/02/08 13:24:51;;;;;;;;;10.33;8.67;;;;;-144.24;100.00;53647.94;5075455;27;47715;-71
2024/02/08 13:27:18;;;;;;;;;8.00;6.67;;;;;-144.24;100.00;54436.69;5080143;27;46386;-69